createdAt,value
2023-05-16T00:04:16.239Z,10.80
2023-05-16T00:09:18.141Z,10.70
2023-05-16T00:14:19.971Z,10.60
2023-05-16T00:19:22.090Z,10.50
2023-05-16T00:24:24.023Z,10.40
2023-05-16T00:29:26.492Z,10.20
2023-05-16T00:34:28.291Z,10.30
2023-05-16T00:39:30.938Z,10.10
2023-05-16T00:44:32.825Z,10.10
2023-05-16T00:49:34.750Z,10.10
2023-05-16T00:54:36.920Z,10.10
2023-05-16T00:59:38.851Z,10.00
2023-05-16T01:04:41.448Z,9.90
2023-05-16T01:09:43.551Z,9.90
2023-05-16T01:15:06.360Z,9.80
2023-05-16T01:20:17.043Z,9.80
2023-05-16T01:25:27.379Z,9.70
2023-05-16T01:30:36.980Z,9.70
2023-05-16T01:35:54.437Z,9.60
2023-05-16T01:41:10.488Z,9.60
2023-05-16T01:46:21.397Z,9.50
2023-05-16T01:51:28.009Z,9.50
2023-05-16T01:56:31.199Z,9.40
2023-05-16T02:01:33.646Z,9.40
2023-05-16T02:06:35.868Z,9.40
2023-05-16T02:11:37.650Z,9.30
2023-05-16T02:16:39.516Z,9.30
2023-05-16T02:21:41.326Z,9.20
2023-05-16T02:26:43.164Z,9.00
2023-05-16T02:31:45.098Z,8.80
2023-05-16T02:36:46.876Z,8.70
2023-05-16T02:41:48.646Z,8.70
2023-05-16T02:46:50.635Z,8.70
2023-05-16T02:51:52.515Z,8.60
2023-05-16T02:56:54.461Z,8.50
2023-05-16T03:01:56.234Z,8.40
2023-05-16T03:06:58.284Z,8.50
2023-05-16T03:12:00.063Z,8.30
2023-05-16T03:17:01.868Z,8.40
2023-05-16T03:22:04.164Z,8.40
2023-05-16T03:27:06.401Z,8.30
2023-05-16T03:32:09.788Z,8.20
2023-05-16T03:37:11.713Z,8.10
2023-05-16T03:42:13.463Z,8.00
2023-05-16T03:47:16.120Z,8.20
2023-05-16T03:52:17.904Z,8.30
2023-05-16T03:57:19.797Z,8.50
2023-05-16T04:02:22.194Z,8.60
2023-05-16T04:07:24.058Z,8.50
2023-05-16T04:12:25.927Z,8.60
2023-05-16T04:17:27.753Z,8.60
2023-05-16T04:22:29.571Z,8.60
2023-05-16T04:27:31.619Z,8.40
2023-05-16T04:32:35.390Z,8.50
2023-05-16T04:37:38.024Z,8.60
2023-05-16T04:42:39.889Z,8.60
2023-05-16T04:47:42.423Z,8.50
2023-05-16T04:52:44.292Z,8.50
2023-05-16T04:57:46.853Z,8.50
2023-05-16T05:02:48.753Z,8.70
2023-05-16T05:07:50.620Z,8.60
2023-05-16T05:12:52.385Z,8.70
2023-05-16T05:17:54.312Z,8.90
2023-05-16T05:22:56.238Z,9.00
2023-05-16T05:27:58.000Z,9.00
2023-05-16T05:32:59.815Z,9.10
2023-05-16T05:38:01.978Z,9.10
2023-05-16T05:43:04.071Z,9.20
2023-05-16T05:48:06.416Z,9.10
2023-05-16T05:53:08.358Z,9.20
2023-05-16T05:58:10.407Z,9.40
2023-05-16T06:03:12.398Z,9.40
2023-05-16T06:08:14.186Z,9.50
2023-05-16T06:13:15.978Z,9.60
2023-05-16T06:18:17.820Z,9.80
2023-05-16T06:23:21.300Z,9.80
2023-05-16T06:28:24.217Z,9.90
2023-05-16T06:33:26.521Z,10.10
2023-05-16T06:38:28.345Z,10.20
2023-05-16T06:43:30.327Z,10.40
2023-05-16T06:48:32.500Z,10.40
2023-05-16T06:53:34.536Z,10.60
2023-05-16T06:58:36.863Z,10.70
2023-05-16T07:03:38.772Z,10.90
2023-05-16T07:08:40.991Z,10.90
2023-05-16T07:13:42.783Z,10.80
2023-05-16T07:18:44.813Z,10.90
2023-05-16T07:23:47.055Z,11.10
2023-05-16T07:28:53.112Z,11.30
2023-05-16T07:33:54.905Z,11.50
2023-05-16T07:38:56.741Z,11.50
2023-05-16T07:43:58.732Z,11.70
2023-05-16T07:49:01.679Z,11.80
2023-05-16T07:54:03.661Z,11.60
2023-05-16T07:59:06.024Z,11.50
2023-05-16T08:04:08.065Z,11.90
2023-05-16T08:09:09.945Z,11.90
2023-05-16T08:14:12.067Z,11.90
2023-05-16T08:19:13.929Z,12.30
2023-05-16T08:24:18.169Z,12.60
2023-05-16T08:29:20.143Z,12.30
2023-05-16T08:34:21.922Z,12.50
2023-05-16T08:39:23.707Z,12.60
2023-05-16T08:44:25.800Z,12.80
2023-05-16T08:49:29.443Z,13.00
2023-05-16T08:54:31.695Z,13.20
2023-05-16T08:59:33.726Z,13.50
2023-05-16T09:04:37.071Z,13.40
2023-05-16T09:09:38.986Z,13.00
2023-05-16T09:14:41.843Z,13.20
2023-05-16T09:19:44.513Z,12.80
2023-05-16T09:24:46.505Z,12.80
2023-05-16T09:29:52.066Z,13.10
2023-05-16T09:34:56.843Z,13.50
2023-05-16T09:39:58.691Z,13.90
2023-05-16T09:45:03.149Z,13.90
2023-05-16T09:50:05.715Z,13.80
2023-05-16T09:55:09.093Z,14.30
2023-05-16T10:00:11.890Z,14.70
2023-05-16T10:05:13.781Z,14.70
2023-05-16T10:10:16.404Z,14.80
2023-05-16T10:15:19.599Z,14.60
2023-05-16T10:20:23.162Z,14.00
2023-05-16T10:25:32.202Z,14.40
2023-05-16T10:30:35.830Z,15.10
2023-05-16T10:35:38.158Z,15.40
2023-05-16T10:40:40.869Z,14.80
2023-05-16T10:45:42.939Z,15.00
2023-05-16T10:50:46.257Z,14.70
2023-05-16T10:56:09.068Z,15.00
2023-05-16T11:01:20.879Z,15.60
2023-05-16T11:06:25.175Z,15.60
2023-05-16T11:11:48.581Z,14.90
2023-05-16T11:16:55.245Z,14.50
2023-05-16T11:22:18.971Z,14.50
2023-05-16T11:27:26.326Z,15.20
2023-05-16T11:32:28.382Z,16.20
2023-05-16T11:37:30.433Z,16.20
2023-05-16T11:42:34.854Z,15.40
2023-05-16T11:47:38.679Z,15.20
2023-05-16T11:52:45.929Z,15.10
2023-05-16T11:57:48.113Z,15.30
2023-05-16T12:02:50.222Z,15.50
2023-05-16T12:07:54.649Z,15.70
2023-05-16T12:12:56.727Z,15.50
2023-05-16T12:17:58.900Z,15.20
2023-05-16T12:23:00.894Z,15.20
2023-05-16T12:28:04.583Z,15.60
2023-05-16T12:33:14.188Z,16.10
2023-05-16T12:38:17.758Z,16.40
2023-05-16T12:43:21.071Z,16.80
2023-05-16T12:48:23.874Z,16.20
2023-05-16T12:53:25.806Z,16.00
2023-05-16T12:58:30.653Z,16.00
2023-05-16T13:03:36.132Z,15.80
2023-05-16T13:08:38.318Z,16.00
2023-05-16T13:13:40.132Z,16.10
2023-05-16T13:18:41.958Z,16.10
2023-05-16T13:23:43.774Z,17.10
2023-05-16T13:28:45.561Z,16.80
2023-05-16T13:33:47.476Z,16.70
2023-05-16T13:38:49.285Z,17.40
2023-05-16T13:43:51.150Z,18.40
2023-05-16T13:48:53.011Z,18.80
2023-05-16T13:53:54.811Z,19.00
2023-05-16T13:59:03.829Z,17.60
2023-05-16T14:04:08.685Z,17.20
2023-05-16T14:09:10.924Z,17.90
2023-05-16T14:14:12.709Z,17.30
2023-05-16T14:19:17.352Z,17.00
2023-05-16T14:24:21.154Z,16.90
2023-05-16T14:29:25.137Z,16.70
2023-05-16T14:34:26.956Z,16.50
2023-05-16T14:39:28.803Z,16.60
2023-05-16T14:44:30.685Z,17.00
2023-05-16T14:49:32.505Z,17.70
2023-05-16T14:54:34.590Z,17.80
2023-05-16T14:59:36.549Z,17.60
2023-05-16T15:04:38.451Z,16.90
2023-05-16T15:09:40.382Z,16.40
2023-05-16T15:14:42.405Z,17.40
2023-05-16T15:19:44.231Z,18.70
2023-05-16T15:24:46.125Z,19.10
2023-05-16T15:29:47.962Z,19.70
2023-05-16T15:34:50.119Z,20.40
2023-05-16T15:39:51.962Z,20.90
2023-05-16T15:44:53.764Z,20.10
2023-05-16T15:49:55.572Z,20.20
2023-05-16T15:54:57.343Z,20.40
2023-05-16T15:59:59.438Z,20.20
2023-05-16T16:05:01.262Z,19.10
2023-05-16T16:10:03.087Z,18.80
2023-05-16T16:15:08.487Z,20.10
2023-05-16T16:20:10.900Z,21.20
2023-05-16T16:25:12.690Z,20.90
2023-05-16T16:30:14.667Z,21.60
2023-05-16T16:35:16.809Z,21.20
2023-05-16T16:40:18.660Z,20.80
2023-05-16T16:45:22.527Z,21.20
2023-05-16T16:50:25.060Z,20.00
2023-05-16T16:55:27.176Z,19.70
2023-05-16T17:00:29.402Z,19.80
2023-05-16T17:05:31.353Z,19.80
2023-05-16T17:10:33.151Z,20.60
2023-05-16T17:15:35.069Z,20.80
2023-05-16T17:20:37.288Z,21.10
2023-05-16T17:25:39.181Z,20.80
2023-05-16T17:30:41.636Z,21.30
2023-05-16T17:35:43.542Z,20.70
2023-05-16T17:40:45.542Z,20.50
2023-05-16T17:45:48.128Z,20.00
2023-05-16T17:50:50.593Z,19.10
2023-05-16T17:55:52.666Z,18.70
2023-05-16T18:00:54.789Z,18.00
2023-05-16T18:05:57.185Z,17.70
2023-05-16T18:10:59.195Z,17.60
2023-05-16T18:16:01.029Z,17.40
2023-05-16T18:21:03.030Z,17.30
2023-05-16T18:26:04.920Z,17.00
2023-05-16T18:31:09.348Z,17.00
2023-05-16T18:36:11.174Z,16.70
2023-05-16T18:41:13.042Z,16.40
2023-05-16T18:46:14.825Z,16.20
2023-05-16T18:51:16.986Z,15.90
2023-05-16T18:56:18.848Z,15.80
2023-05-16T19:01:22.419Z,15.70
2023-05-16T19:06:24.770Z,15.60
2023-05-16T19:11:26.676Z,15.40
2023-05-16T19:16:28.709Z,15.50
2023-05-16T19:21:31.592Z,15.30
2023-05-16T19:26:33.638Z,15.40
2023-05-16T19:31:35.818Z,15.20
2023-05-16T19:36:38.284Z,15.00
2023-05-16T19:41:42.012Z,14.90
2023-05-16T19:46:44.024Z,14.90
2023-05-16T19:51:45.972Z,14.80
2023-05-16T19:56:49.177Z,14.70
2023-05-16T20:01:51.033Z,14.50
2023-05-16T20:06:54.041Z,14.20
2023-05-16T20:11:57.462Z,14.20
2023-05-16T20:16:59.332Z,14.10
2023-05-16T20:22:01.477Z,14.00
2023-05-16T20:27:03.436Z,14.00
2023-05-16T20:32:07.006Z,13.70
2023-05-16T20:37:08.839Z,13.70
2023-05-16T20:42:11.228Z,13.60
2023-05-16T20:47:13.079Z,13.40
2023-05-16T20:52:15.039Z,13.50
2023-05-16T20:57:17.772Z,13.10
2023-05-16T21:02:19.643Z,13.00
2023-05-16T21:07:21.709Z,13.10
2023-05-16T21:12:24.806Z,13.10
2023-05-16T21:17:26.630Z,13.10
2023-05-16T21:22:28.434Z,12.90
2023-05-16T21:27:30.289Z,12.80
2023-05-16T21:32:32.919Z,12.90
2023-05-16T21:37:34.805Z,12.40
2023-05-16T21:42:36.853Z,12.40
2023-05-16T21:47:38.695Z,12.70
2023-05-16T21:52:41.038Z,12.50
2023-05-16T21:57:42.943Z,12.30
2023-05-16T22:02:44.946Z,11.90
2023-05-16T22:07:47.004Z,11.70
2023-05-16T22:12:48.837Z,11.60
2023-05-16T22:17:51.249Z,11.50
2023-05-16T22:22:53.349Z,11.50
2023-05-16T22:27:55.185Z,11.30
2023-05-16T22:32:57.274Z,11.30
2023-05-16T22:37:59.631Z,11.40
2023-05-16T22:43:01.855Z,11.20
2023-05-16T22:48:03.932Z,11.00
2023-05-16T22:53:05.774Z,10.90
2023-05-16T22:58:07.559Z,10.90
2023-05-16T23:03:09.498Z,11.00
2023-05-16T23:08:11.559Z,10.90
2023-05-16T23:13:13.633Z,10.80
2023-05-16T23:18:15.564Z,10.60
2023-05-16T23:23:17.432Z,10.60
2023-05-16T23:28:19.759Z,10.60
2023-05-16T23:33:21.725Z,10.50
2023-05-16T23:38:25.619Z,10.40
2023-05-16T23:43:27.434Z,10.30
2023-05-16T23:48:29.315Z,10.20
2023-05-16T23:53:32.967Z,10.20
2023-05-16T23:58:34.777Z,10.10
